Time;durP1;ratioP1;P1;durP2;ratioP2;P2;SDS_P1;SDS_P2;PMS_P1;PMS_P2;Temp;Humidity;BMP_temperature;BMP_pressure;BME280_temperature;BME280_humidity;BME280_pressure;Samples;Min_cycle;Max_cycle;Signal;HPM_P1;HPM_P2
2022/12/13 07:34:44;;;;;;;0.60;0.60;;;-2.50;99.90;-3.80;100718.00;;;;5070432;28;20231;-67
2022/12/13 07:37:09;;;;;;;3.90;3.60;;;-2.70;99.90;-4.40;100707.00;;;;5054339;28;20701;-66
2022/12/13 07:39:35;;;;;;;0.60;0.60;;;-2.90;99.90;-4.00;100667.00;;;;5067684;28;20198;-66
2022/12/13 07:42:02;;;;;;;2.53;0.90;;;-3.00;99.90;-3.80;100721.00;;;;5074173;28;20739;-67
2022/12/13 07:44:30;;;;;;;0.60;0.60;;;-2.90;99.90;-3.50;100674.00;;;;5057772;28;20203;-68
2022/12/13 07:46:56;;;;;;;1.80;1.70;;;-2.70;99.90;-3.30;100685.00;;;;5075412;28;20283;-66
2022/12/13 07:49:22;;;;;;;0.80;0.80;;;-2.60;99.90;-3.20;100729.00;;;;5062230;28;20197;-67
2022/12/13 07:52:03;;;;;;;0.90;0.90;;;-2.50;99.90;-3.30;100684.00;;;;5065119;28;20308;-67
2022/12/13 07:54:30;;;;;;;2.63;2.53;;;-2.50;99.90;-3.10;100674.00;;;;5057440;28;20199;-67
2022/12/13 07:56:56;;;;;;;0.60;0.60;;;-2.50;99.90;-3.30;100731.00;;;;5075947;28;20200;-67
2022/12/13 07:59:22;;;;;;;0.60;0.60;;;-2.50;99.90;-3.70;100686.00;;;;5067137;28;20196;-67
2022/12/13 08:01:48;;;;;;;1.50;1.50;;;-2.70;99.90;-3.40;100729.00;;;;5066989;28;20193;-67
2022/12/13 08:04:14;;;;;;;0.90;0.90;;;-2.70;99.90;-2.90;100734.00;;;;5070866;28;20582;-67
2022/12/13 08:07:05;;;;;;;3.67;3.57;;;-2.50;99.90;-3.20;100725.00;;;;5073695;28;20264;-67
2022/12/13 08:09:31;;;;;;;2.80;2.60;;;-2.40;99.90;-4.00;100689.00;;;;5057167;28;20205;-67
2022/12/13 08:11:58;;;;;;;3.50;2.80;;;-2.60;99.90;-3.60;100727.00;;;;5071307;28;20229;-67
2022/12/13 08:14:24;;;;;;;2.30;2.10;;;-2.60;99.90;-3.70;100681.00;;;;5051459;28;20207;-66
2022/12/13 08:16:49;;;;;;;1.90;1.80;;;-2.60;99.90;-3.80;100728.00;;;;5056885;28;20573;-66
2022/12/13 08:19:20;;;;;;;0.80;0.80;;;-2.60;99.90;-3.10;100728.00;;;;5074893;28;20206;-66
2022/12/13 08:21:46;;;;;;;5.23;3.03;;;-2.50;99.90;-3.20;100691.00;;;;5057137;28;20193;-66
2022/12/13 08:24:12;;;;;;;3.00;1.90;;;-2.30;99.90;-3.60;100733.00;;;;5060661;28;20205;-66
2022/12/13 08:26:38;;;;;;;42.40;6.53;;;-2.50;99.90;-3.60;100699.00;;;;5073665;28;20294;-66
2022/12/13 08:29:07;;;;;;;0.90;0.90;;;-2.50;99.90;-3.60;100696.00;;;;5067264;28;20288;-66
2022/12/13 08:31:33;;;;;;;1.03;1.03;;;-2.50;99.90;-3.30;100734.00;;;;5044673;28;20206;-66
2022/12/13 08:33:58;;;;;;;0.40;0.40;;;-2.40;99.90;-3.00;100738.00;;;;5055344;28;20671;-66
2022/12/13 08:36:24;;;;;;;1.33;1.33;;;-2.20;99.90;-3.00;100762.00;;;;5073374;28;20240;-66
2022/12/13 08:38:53;;;;;;;0.50;0.50;;;-2.20;99.90;-2.60;100727.00;;;;5061160;28;20203;-66
2022/12/13 08:41:19;;;;;;;1.27;1.23;;;-2.10;99.90;-2.90;100768.00;;;;5071462;28;20201;-66
2022/12/13 08:43:52;;;;;;;0.50;0.50;;;-2.20;99.90;-2.50;100751.00;;;;5069392;28;20193;-66
2022/12/13 08:46:18;;;;;;;1.00;1.00;;;-2.10;99.90;-2.60;100762.00;;;;5056617;28;20235;-66
2022/12/13 08:48:44;;;;;;;2.10;2.03;;;-2.10;99.90;-2.60;100745.00;;;;5049150;28;20202;-66
2022/12/13 08:51:16;;;;;;;2.03;1.93;;;-2.00;99.90;-2.60;100750.00;;;;5070163;28;20240;-66
2022/12/13 08:53:42;;;;;;;1.50;1.47;;;-2.00;99.90;-2.40;100702.00;;;;5070682;28;20213;-66
2022/12/13 08:56:12;;;;;;;0.60;0.60;;;-1.80;99.90;-2.10;100724.00;;;;5064027;28;20212;-63
2022/12/13 08:58:41;;;;;;;1.40;1.40;;;-1.60;99.90;-2.50;100763.00;;;;5069767;28;20231;-63
2022/12/13 09:01:08;;;;;;;4.60;4.13;;;-1.60;99.90;-2.90;100763.00;;;;5046360;28;20307;-64
2022/12/13 09:03:35;;;;;;;2.67;2.47;;;-1.70;99.90;-2.50;100749.00;;;;5067651;28;20198;-64
2022/12/13 09:06:13;;;;;;;5.37;4.87;;;-1.60;99.90;-2.70;100768.00;;;;5049429;28;20221;-64
2022/12/13 09:08:51;;;;;;;3.43;3.13;;;-1.60;99.90;-2.40;100761.00;;;;5039327;28;20212;-66
2022/12/13 09:11:18;;;;;;;8.37;2.27;;;-1.60;99.90;-2.30;100767.00;;;;5038888;28;20223;-67
2022/12/13 09:13:44;;;;;;;2.70;2.57;;;-1.50;99.90;-2.10;100769.00;;;;5047108;28;20225;-67
2022/12/13 09:16:21;;;;;;;1.40;1.40;;;-1.40;99.90;-2.10;100783.00;;;;5051546;28;20661;-66
2022/12/13 09:18:46;;;;;;;5.20;2.63;;;-1.50;99.90;-2.90;100723.00;;;;5067016;28;20292;-66
2022/12/13 09:21:14;;;;;;;30.13;6.73;;;-1.60;99.90;-2.90;100765.00;;;;5073495;28;20338;-66
2022/12/13 09:23:47;;;;;;;1.00;1.00;;;-1.80;99.90;-2.30;100756.00;;;;5073477;28;20278;-66
2022/12/13 09:26:15;;;;;;;3.47;2.93;;;-1.50;99.90;-2.70;100767.00;;;;5056522;28;20686;-66
2022/12/13 09:28:51;;;;;;;3.07;2.87;;;-1.50;99.90;-2.60;100758.00;;;;5054845;28;20205;-63
2022/12/13 09:31:18;;;;;;;4.70;2.57;;;-1.60;99.90;-2.10;100753.00;;;;5065641;28;20213;-64
2022/12/13 09:34:13;;;;;;;7.33;4.90;;;-1.20;99.90;-2.90;100756.00;;;;5045055;28;20276;-63
2022/12/13 09:36:38;;;;;;;4.57;3.93;;;-1.50;99.90;-2.50;100770.00;;;;5069597;28;20244;-64
2022/12/13 09:39:04;;;;;;;1.97;1.87;;;-1.40;99.90;-2.00;100771.00;;;;5057469;28;20209;-64
2022/12/13 09:41:50;;;;;;;6.10;4.73;;;-1.30;99.90;-2.20;100758.00;;;;5073498;28;20205;-64
2022/12/13 09:44:34;;;;;;;2.50;1.27;;;-1.20;99.90;-1.80;100768.00;;;;5065393;28;20201;-64
2022/12/13 09:47:08;;;;;;;0.93;0.93;;;-1.10;99.90;-1.80;100773.00;;;;5066647;28;20254;-64
2022/12/13 09:49:43;;;;;;;2.80;1.90;;;-1.10;99.90;-1.60;100777.00;;;;5028779;28;20232;-64
2022/12/13 09:52:20;;;;;;;5.40;2.50;;;-0.90;99.90;-1.60;100773.00;;;;5048639;28;20219;-64
2022/12/13 09:54:57;;;;;;;1.80;1.70;;;-0.90;99.90;-1.80;100777.00;;;;5054230;28;20210;-64
2022/12/13 09:57:29;;;;;;;3.43;2.50;;;-0.90;99.90;-2.00;100763.00;;;;5063678;28;20235;-64
2022/12/13 09:59:57;;;;;;;4.93;3.70;;;-1.00;99.90;-2.20;100756.00;;;;5063346;28;20213;-64
2022/12/13 10:02:32;;;;;;;1.80;1.30;;;-1.10;99.90;-2.20;100763.00;;;;5080886;28;20224;-64
2022/12/13 10:05:22;;;;;;;2.50;2.30;;;-1.00;99.90;-1.30;100769.00;;;;5060166;28;20212;-64
2022/12/13 10:07:52;;;;;;;3.00;2.80;;;-0.70;99.90;-1.30;100760.00;;;;5062315;28;20255;-64
2022/12/13 10:10:21;;;;;;;3.73;3.43;;;-0.50;99.90;-1.50;100768.00;;;;5062782;28;20694;-64
2022/12/13 10:13:50;;;;;;;4.97;4.33;;;-0.50;99.90;-1.20;100767.00;;;;5062920;28;20224;-65
2022/12/13 10:16:42;;;;;;;2.43;2.33;;;-0.60;99.90;-0.30;100753.00;;;;5080635;28;20207;-64
2022/12/13 10:19:36;;;;;;;5.43;3.73;;;0.20;99.90;-0.30;100753.00;;;;5064329;28;20298;-64
2022/12/13 10:33:44;;;;;;;3.70;3.37;;;-0.10;99.90;-0.50;100693.00;;;;5078241;27;20540;-66
2022/12/13 10:36:31;;;;;;;3.77;3.03;;;0.10;99.90;-0.60;100728.00;;;;5045207;28;20243;-67
2022/12/13 10:38:57;;;;;;;4.00;3.73;;;0.50;99.90;0.10;100733.00;;;;5056792;28;20209;-67
2022/12/13 10:42:10;;;;;;;2.83;2.67;;;0.70;99.90;0.20;100750.00;;;;5057763;28;20211;-67
2022/12/13 10:44:42;;;;;;;5.20;3.33;;;1.10;99.90;0.30;100732.00;;;;5054701;28;20222;-67
2022/12/13 10:47:27;;;;;;;5.30;4.63;;;0.90;99.90;1.30;100729.00;;;;5041729;28;20403;-67
2022/12/13 10:50:21;;;;;;;2.67;2.47;;;1.50;99.90;0.80;100745.00;;;;5073481;28;20181;-67
2022/12/13 10:52:47;;;;;;;5.43;3.63;;;1.60;99.90;0.30;100735.00;;;;5055631;28;20194;-67
2022/12/13 10:55:37;;;;;;;11.03;4.80;;;1.10;99.90;0.50;100744.00;;;;5040877;28;20989;-67
2022/12/13 10:58:08;;;;;;;1.37;1.23;;;1.20;99.90;0.70;100740.00;;;;5057004;28;20190;-67
2022/12/13 11:01:10;;;;;;;0.80;0.80;;;1.40;99.90;1.30;100739.00;;;;5056359;28;20188;-66
2022/12/13 11:03:36;;;;;;;6.40;3.47;;;1.80;99.90;0.50;100739.00;;;;5053328;28;20194;-67
2022/12/13 11:06:18;;;;;;;4.10;2.73;;;1.50;99.90;0.90;100728.00;;;;5041965;28;20715;-67
2022/12/13 11:09:15;;;;;;;8.60;4.80;;;1.40;99.90;0.80;100699.00;;;;5055319;28;20191;-67
2022/12/13 11:11:43;;;;;;;2.87;2.33;;;1.60;99.90;0.60;100700.00;;;;5056752;28;20561;-65
2022/12/13 11:14:18;;;;;;;5.67;5.17;;;1.50;99.90;1.00;100740.00;;;;5040536;28;20265;-65
2022/12/13 11:16:57;;;;;;;6.70;5.60;;;1.70;99.90;2.00;100699.00;;;;5056105;28;20185;-65
2022/12/13 11:19:38;;;;;;;4.37;3.13;;;2.00;99.90;2.00;100734.00;;;;5056246;28;20684;-65
2022/12/13 11:22:07;;;;;;;2.03;1.33;;;2.30;99.90;2.10;100742.00;;;;5056898;28;20178;-66
2022/12/13 11:24:37;;;;;;;15.93;3.73;;;2.50;99.90;0.30;100725.00;;;;5055410;28;20553;-64
2022/12/13 11:27:56;;;;;;;4.37;3.10;;;1.80;99.90;0.50;100707.00;;;;5055805;28;20178;-65
2022/12/13 11:30:29;;;;;;;0.60;0.60;;;1.50;99.90;1.50;100718.00;;;;5053289;28;20201;-65
2022/12/13 11:33:31;;;;;;;0.40;0.40;;;1.80;99.90;1.70;100726.00;;;;5042112;28;20282;-65
2022/12/13 11:36:29;;;;;;;3.27;3.00;;;2.10;99.90;2.10;100733.00;;;;5026021;28;20202;-65
2022/12/13 11:39:34;;;;;;;1.13;1.07;;;2.30;99.90;2.10;100727.00;;;;5057199;28;20174;-65
2022/12/13 11:42:21;;;;;;;4.57;4.17;;;2.20;99.90;0.30;100703.00;;;;5056165;28;20181;-65
2022/12/13 11:45:13;;;;;;;0.47;0.47;;;1.70;99.90;1.00;100681.00;;;;5043387;28;20195;-65
2022/12/13 11:48:03;;;;;;;1.20;1.10;;;1.60;99.90;1.20;100696.00;;;;5042019;28;20183;-65
2022/12/13 11:50:40;;;;;;;7.27;6.83;;;1.70;99.90;1.30;100675.00;;;;5042538;28;20313;-65
2022/12/13 11:53:25;;;;;;;4.83;3.10;;;1.70;99.90;1.60;100697.00;;;;5042067;28;20211;-65
2022/12/13 11:56:15;;;;;;;3.87;3.13;;;1.80;99.90;1.60;100694.00;;;;5042812;28;20214;-65
2022/12/13 11:58:57;;;;;;;1.07;0.70;;;1.90;99.90;1.50;100691.00;;;;5031016;28;20253;-65
2022/12/13 12:01:45;;;;;;;1.70;1.60;;;2.00;99.90;0.40;100672.00;;;;5027332;28;20277;-64
2022/12/13 12:04:45;;;;;;;6.20;3.47;;;1.40;99.90;0.40;100673.00;;;;5025221;28;20194;-64
2022/12/13 12:07:26;;;;;;;0.73;0.73;;;1.20;99.90;0.20;100669.00;;;;5032872;28;20708;-64
2022/12/13 12:10:12;;;;;;;2.93;2.43;;;1.10;99.90;0.70;100673.00;;;;5033724;28;20269;-65
2022/12/13 12:13:09;;;;;;;2.10;2.00;;;1.30;99.90;0.50;100680.00;;;;5023043;28;20235;-64
2022/12/13 12:16:00;;;;;;;2.70;2.50;;;1.30;99.90;1.10;100670.00;;;;5030335;28;20189;-64
2022/12/13 12:18:43;;;;;;;1.43;1.33;;;1.50;99.90;1.30;100669.00;;;;5030571;28;20199;-64
2022/12/13 12:21:56;;;;;;;6.03;3.10;;;1.60;99.90;1.20;100665.00;;;;5017111;28;20301;-65
2022/12/13 12:24:51;;;;;;;3.10;2.67;;;1.70;99.90;1.30;100677.00;;;;5030556;28;20253;-65
2022/12/13 12:27:35;;;;;;;1.13;0.67;;;1.70;99.90;1.40;100663.00;;;;5025520;28;20209;-65
2022/12/13 12:30:02;;;;;;;1.80;1.70;;;1.70;99.90;1.20;100666.00;;;;5034723;28;20183;-64
2022/12/13 12:32:43;;;;;;;3.08;2.75;;;1.60;99.90;0.90;100663.00;;;;5033994;28;20461;-65
2022/12/13 12:35:25;;;;;;;0.80;0.80;;;1.50;99.90;1.10;100640.00;;;;5033399;28;20190;-65
2022/12/13 12:38:28;;;;;;;4.43;2.73;;;1.50;99.90;0.90;100668.00;;;;5033164;28;20182;-65
2022/12/13 12:41:29;;;;;;;1.40;1.30;;;1.60;99.90;1.20;100649.00;;;;5042941;28;20198;-65
2022/12/13 12:44:32;;;;;;;4.13;3.73;;;1.50;99.90;1.10;100643.00;;;;5017001;28;20598;-64
2022/12/13 12:47:30;;;;;;;0.53;0.53;;;1.50;99.90;1.50;100640.00;;;;5025416;28;20205;-65
2022/12/13 12:50:21;;;;;;;1.33;1.33;;;1.70;99.90;0.50;100640.00;;;;5041586;28;20194;-65
2022/12/13 12:52:58;;;;;;;5.53;4.10;;;1.30;99.90;0.80;100638.00;;;;5030904;28;20223;-64
2022/12/13 12:55:38;;;;;;;1.87;1.63;;;1.20;99.90;0.60;100628.00;;;;5032994;28;20269;-64
2022/12/13 12:58:26;;;;;;;2.83;1.80;;;1.30;99.90;0.40;100618.00;;;;5033397;28;20590;-64
2022/12/13 13:01:10;;;;;;;0.97;0.87;;;1.20;99.90;0.30;100617.00;;;;5033238;28;20646;-65
2022/12/13 13:03:40;;;;;;;3.30;2.43;;;1.10;99.90;0.30;100626.00;;;;5033172;28;20639;-64
2022/12/13 13:06:35;;;;;;;1.23;1.17;;;1.00;99.90;0.50;100604.00;;;;5022252;28;20554;-65
2022/12/13 13:09:10;;;;;;;3.67;3.33;;;0.90;99.90;0.40;100622.00;;;;5010585;28;20205;-64
2022/12/13 13:11:40;;;;;;;2.27;1.60;;;1.10;99.90;0.70;100567.00;;;;5033078;28;20190;-64
2022/12/13 13:14:25;;;;;;;3.57;2.43;;;1.10;99.90;0.50;100597.00;;;;5032330;28;20248;-64
2022/12/13 13:16:51;;;;;;;2.17;1.97;;;1.20;99.90;0.90;100575.00;;;;5032930;28;20205;-64
2022/12/13 13:19:18;;;;;;;3.90;3.60;;;1.30;99.90;0.60;100621.00;;;;5032891;28;20281;-64
2022/12/13 13:21:54;;;;;;;0.47;0.47;;;1.20;99.90;1.10;100618.00;;;;5033035;28;20209;-64
2022/12/13 13:24:24;;;;;;;5.60;4.30;;;1.40;99.90;1.10;100614.00;;;;5032149;28;20276;-64
2022/12/13 13:27:28;;;;;;;1.80;1.70;;;1.50;99.90;0.90;100610.00;;;;5032728;28;20649;-64
2022/12/13 13:30:16;;;;;;;3.50;2.93;;;1.50;99.90;0.60;100604.00;;;;5009819;28;20240;-64
2022/12/13 13:32:43;;;;;;;3.17;2.83;;;1.40;99.90;0.90;100597.00;;;;5022591;28;20232;-64
2022/12/13 13:35:27;;;;;;;4.70;4.10;;;1.40;99.90;1.50;100570.00;;;;5032448;28;20187;-64
2022/12/13 13:37:54;;;;;;;5.13;3.70;;;1.70;99.90;1.00;100602.00;;;;5032919;28;20233;-64
2022/12/13 13:40:40;;;;;;;3.73;2.70;;;1.70;99.90;0.90;100586.00;;;;5017698;28;20182;-64
2022/12/13 13:43:09;;;;;;;0.67;0.67;;;1.60;99.90;0.60;100587.00;;;;5032958;28;20273;-64
2022/12/13 13:46:07;;;;;;;2.47;2.27;;;1.40;99.90;0.40;100589.00;;;;5032741;28;20281;-64
2022/12/13 13:49:05;;;;;;;5.10;3.03;;;1.20;99.90;0.50;100573.00;;;;5032437;28;20265;-64
2022/12/13 13:51:53;;;;;;;5.13;4.27;;;1.20;99.90;0.10;100565.00;;;;5023259;28;20249;-64
2022/12/13 13:54:37;;;;;;;6.90;2.90;;;1.10;99.90;0.20;100568.00;;;;5033112;28;20265;-64
2022/12/13 13:57:24;;;;;;;7.03;0.80;;;1.00;99.90;0.60;100563.00;;;;5032215;28;20190;-65
2022/12/13 14:00:22;;;;;;;0.43;0.43;;;1.10;99.90;0.60;100557.00;;;;5028724;28;20182;-64
2022/12/13 14:03:25;;;;;;;0.63;0.40;;;1.10;99.90;0.70;100562.00;;;;5023935;28;20229;-64
2022/12/13 14:05:59;;;;;;;3.37;2.90;;;1.20;99.90;0.50;100563.00;;;;5032922;28;20182;-64
2022/12/13 14:08:34;;;;;;;3.60;2.10;;;1.30;99.90;0.70;100545.00;;;;5024670;28;20307;-64
2022/12/13 14:11:42;;;;;;;5.80;3.40;;;1.20;99.90;0.30;100509.00;;;;5030293;28;20189;-64
2022/12/13 14:14:45;;;;;;;1.33;1.27;;;1.10;99.90;0.30;100544.00;;;;5028248;28;20624;-64
2022/12/13 14:18:02;;;;;;;0.90;0.90;;;1.10;99.90;0.50;100550.00;;;;5031889;28;20217;-63
2022/12/13 14:21:00;;;;;;;4.50;4.27;;;1.10;99.90;0.60;100532.00;;;;5038407;28;20187;-64
2022/12/13 14:23:32;;;;;;;3.60;2.60;;;1.20;99.90;0.40;100544.00;;;;5031554;28;20192;-64
2022/12/13 14:26:32;;;;;;;1.40;1.10;;;1.20;99.90;0.80;100545.00;;;;5048532;28;20214;-64
2022/12/13 14:29:02;;;;;;;7.57;2.67;;;1.20;99.90;0.60;100543.00;;;;5024836;28;20191;-64
2022/12/13 14:31:53;;;;;;;5.60;3.77;;;1.30;99.90;0.60;100535.00;;;;5015096;28;20249;-64
2022/12/13 14:34:26;;;;;;;7.40;4.80;;;1.30;99.90;0.80;100534.00;;;;5026817;28;20191;-65
2022/12/13 14:36:59;;;;;;;1.23;1.10;;;1.20;99.90;0.60;100548.00;;;;5020743;28;20197;-64
2022/12/13 14:39:30;;;;;;;4.83;2.67;;;1.30;99.90;0.40;100513.00;;;;5031926;28;20273;-64
2022/12/13 14:41:58;;;;;;;5.63;3.40;;;1.10;99.90;0.40;100533.00;;;;5015368;28;20194;-64
2022/12/13 14:44:30;;;;;;;4.90;3.00;;;1.10;99.90;0.60;100519.00;;;;5017091;28;20198;-64
2022/12/13 14:47:06;;;;;;;2.20;2.10;;;1.10;99.90;0.50;100484.00;;;;5011403;28;20187;-64
2022/12/13 14:49:40;;;;;;;0.40;0.40;;;1.20;99.90;1.10;100543.00;;;;5021630;28;20183;-64
2022/12/13 14:52:25;;;;;;;1.87;1.73;;;1.40;99.90;1.00;100538.00;;;;5030081;28;20230;-65
2022/12/13 14:55:32;;;;;;;2.63;2.53;;;1.40;99.90;0.70;100535.00;;;;5031319;28;20292;-64
2022/12/13 14:58:00;;;;;;;2.67;2.47;;;1.40;99.90;0.60;100484.00;;;;5010525;28;20237;-64
2022/12/13 15:00:38;;;;;;;1.87;1.77;;;1.30;99.90;0.30;100527.00;;;;5030174;28;20723;-65
2022/12/13 15:03:22;;;;;;;6.00;5.10;;;1.00;99.90;-0.10;100528.00;;;;5029853;28;20210;-66
2022/12/13 15:05:54;;;;;;;2.17;2.07;;;0.90;99.90;0.30;100526.00;;;;5031600;28;20190;-63
2022/12/13 15:08:21;;;;;;;4.73;4.30;;;0.90;99.90;0.10;100532.00;;;;5023944;28;20285;-63
2022/12/13 15:10:52;;;;;;;4.17;2.40;;;0.90;99.90;0.20;100524.00;;;;5046468;28;20205;-64
2022/12/13 15:13:35;;;;;;;4.73;2.70;;;0.80;99.90;0.10;100525.00;;;;5031166;28;20685;-66
2022/12/13 15:16:08;;;;;;;3.43;3.17;;;0.70;99.90;0.10;100519.00;;;;5030240;28;20638;-64
2022/12/13 15:18:35;;;;;;;4.07;3.33;;;0.70;99.90;0.10;100480.00;;;;5029030;28;20194;-64
2022/12/13 15:21:02;;;;;;;2.40;2.30;;;0.80;99.90;-0.10;100514.00;;;;5025460;28;20212;-64
2022/12/13 15:23:35;;;;;;;3.60;3.07;;;0.70;99.90;0.60;100522.00;;;;5032008;28;20194;-64
2022/12/13 15:26:20;;;;;;;1.63;1.53;;;0.90;99.90;0.50;100534.00;;;;5026385;28;20665;-64
2022/12/13 15:28:53;;;;;;;2.33;2.10;;;0.90;99.90;0.30;100526.00;;;;5029358;28;20182;-65
2022/12/13 15:31:37;;;;;;;5.47;3.03;;;0.80;99.90;0.20;100518.00;;;;5034286;28;20245;-63
2022/12/13 15:34:36;;;;;;;3.33;2.57;;;0.70;99.90;0.30;100518.00;;;;5034095;28;20642;-64
2022/12/13 15:37:11;;;;;;;1.37;1.03;;;0.70;99.90;0.00;100513.00;;;;5047235;28;20191;-64
2022/12/13 15:39:53;;;;;;;4.40;4.03;;;0.50;99.90;-0.10;100454.00;;;;5035295;28;20222;-65
2022/12/13 15:42:31;;;;;;;4.23;3.67;;;0.60;99.90;0.00;100496.00;;;;5013948;28;20241;-64
2022/12/13 15:45:04;;;;;;;7.10;3.60;;;0.60;99.90;-0.50;100488.00;;;;5033127;28;20189;-64
2022/12/13 15:47:36;;;;;;;2.67;2.57;;;0.40;99.90;0.00;100486.00;;;;5035315;28;20277;-64
2022/12/13 15:50:36;;;;;;;3.47;2.90;;;0.40;99.90;-0.10;100497.00;;;;5034439;28;20178;-64
2022/12/13 15:53:27;;;;;;;6.40;4.50;;;0.40;99.90;0.10;100497.00;;;;5033995;28;20678;-64
2022/12/13 15:55:53;;;;;;;8.43;2.07;;;0.50;99.90;-0.20;100490.00;;;;5017334;28;20245;-65
2022/12/13 15:58:57;;;;;;;4.97;3.17;;;0.50;99.90;-0.50;100435.00;;;;5020467;28;20646;-64
2022/12/13 16:01:54;;;;;;;4.77;4.20;;;0.30;99.90;-0.10;100484.00;;;;5033336;28;20186;-65
2022/12/13 16:04:31;;;;;;;1.87;1.77;;;0.40;99.90;0.30;100490.00;;;;5028724;28;20191;-65
2022/12/13 16:06:59;;;;;;;1.80;1.27;;;0.50;99.90;-0.30;100476.00;;;;5021305;28;20546;-64
2022/12/13 16:09:46;;;;;;;1.67;1.57;;;0.50;99.90;0.10;100484.00;;;;5020299;28;20186;-64
2022/12/13 16:12:25;;;;;;;2.40;2.20;;;0.40;99.90;-0.70;100471.00;;;;5033510;28;20658;-65
2022/12/13 16:15:18;;;;;;;5.57;3.00;;;0.20;99.90;-0.80;100476.00;;;;5034664;28;20183;-65
2022/12/13 16:18:18;;;;;;;2.67;2.47;;;0.10;99.90;0.20;100475.00;;;;5034264;28;20190;-66
2022/12/13 16:20:45;;;;;;;2.40;2.30;;;0.30;99.90;0.00;100471.00;;;;5033065;28;20190;-68
2022/12/13 16:23:11;;;;;;;3.10;2.87;;;0.40;99.90;-0.10;100471.00;;;;5020997;28;20642;-69
2022/12/13 16:25:40;;;;;;;0.60;0.60;;;0.40;99.90;0.10;100438.00;;;;5029572;28;20642;-70
2022/12/13 16:28:13;;;;;;;2.17;2.03;;;0.50;99.90;-0.30;100428.00;;;;5050104;28;20183;-70
2022/12/13 16:30:59;;;;;;;1.80;1.63;;;0.40;99.90;0.00;100447.00;;;;5033565;28;20185;-70
2022/12/13 16:33:43;;;;;;;3.10;2.53;;;0.40;99.90;0.20;100483.00;;;;5030181;28;20230;-70
2022/12/13 16:36:12;;;;;;;4.80;2.87;;;0.50;99.90;0.00;100427.00;;;;5028726;28;20638;-70
2022/12/13 16:38:55;;;;;;;1.30;1.30;;;0.50;99.90;0.20;100483.00;;;;5033471;28;20277;-70
2022/12/13 16:41:23;;;;;;;6.13;4.43;;;0.50;99.90;0.00;100481.00;;;;5034074;28;20185;-70
2022/12/13 16:43:57;;;;;;;0.70;0.70;;;0.50;99.90;0.00;100486.00;;;;5033520;28;20237;-70
2022/12/13 16:46:26;;;;;;;2.33;2.13;;;0.40;99.90;0.20;100480.00;;;;5027281;28;20206;-70
2022/12/13 16:49:23;;;;;;;1.10;1.10;;;0.50;99.90;-0.20;100486.00;;;;5018047;28;20175;-70
2022/12/13 16:52:08;;;;;;;2.13;2.03;;;0.50;99.90;-0.10;100473.00;;;;5033244;28;20257;-70
2022/12/13 16:54:37;;;;;;;1.80;1.70;;;0.40;99.90;0.00;100477.00;;;;5014851;28;20202;-70
2022/12/13 16:57:03;;;;;;;1.60;1.50;;;0.40;99.90;-0.20;100446.00;;;;5033151;28;20179;-70
2022/12/13 16:59:29;;;;;;;2.10;2.00;;;0.30;99.90;0.10;100482.00;;;;5016847;28;20252;-70
2022/12/13 17:01:55;;;;;;;7.07;5.27;;;0.50;99.90;-0.20;100439.00;;;;5032985;28;20633;-70
2022/12/13 17:04:22;;;;;;;0.97;0.97;;;0.50;99.90;-0.50;100421.00;;;;5017162;28;20183;-70
2022/12/13 17:06:49;;;;;;;7.87;4.00;;;0.40;99.90;-0.40;100476.00;;;;5016225;28;20183;-70
2022/12/13 17:09:17;;;;;;;5.30;2.33;;;0.30;99.90;-0.70;100476.00;;;;5033239;28;20183;-70
2022/12/13 17:11:50;;;;;;;7.83;5.00;;;0.10;99.90;-0.80;100465.00;;;;5035821;28;20652;-69
2022/12/13 17:14:16;;;;;;;2.57;2.37;;;0.10;99.90;-0.90;100458.00;;;;5040310;28;20634;-70
2022/12/13 17:16:42;;;;;;;3.97;3.60;;;0.00;99.90;-1.00;100454.00;;;;5023835;28;20276;-70
2022/12/13 17:19:10;;;;;;;2.20;1.67;;;-0.10;99.90;-0.60;100466.00;;;;5040684;28;20190;-69
2022/12/13 17:21:36;;;;;;;9.53;4.67;;;0.00;99.90;-0.60;100453.00;;;;5041527;28;20191;-70
2022/12/13 17:24:02;;;;;;;10.37;9.43;;;0.10;99.90;-0.80;100405.00;;;;5024703;28;20984;-70
2022/12/13 17:26:29;;;;;;;3.97;3.67;;;0.00;99.90;-0.90;100455.00;;;;5024416;28;20190;-70
2022/12/13 17:28:55;;;;;;;0.93;0.93;;;0.00;99.90;-1.00;100453.00;;;;5025047;28;20186;-70
2022/12/13 17:31:21;;;;;;;2.03;1.90;;;-0.10;99.90;-0.80;100422.00;;;;5041102;28;20191;-70
2022/12/13 17:34:14;;;;;;;5.40;3.60;;;-0.20;99.90;-0.70;100442.00;;;;5023744;28;20190;-70
2022/12/13 17:36:42;;;;;;;8.90;6.80;;;-0.10;99.90;-1.00;100439.00;;;;5040674;28;20232;-70
2022/12/13 17:39:15;;;;;;;9.03;6.03;;;-0.10;99.90;-1.40;100428.00;;;;5039986;28;20668;-70
2022/12/13 17:41:41;;;;;;;8.63;4.70;;;-0.30;99.90;-1.10;100416.00;;;;5039362;28;20587;-69
2022/12/13 17:44:07;;;;;;;2.97;2.73;;;-0.20;99.90;-0.90;100433.00;;;;5040523;28;20309;-70
2022/12/13 17:46:33;;;;;;;5.73;3.17;;;-0.20;99.90;-0.90;100422.00;;;;5038972;28;20194;-70
2022/12/13 17:48:59;;;;;;;11.60;7.13;;;-0.10;99.90;-1.10;100423.00;;;;5041717;28;20548;-70
2022/12/13 17:51:43;;;;;;;5.90;3.63;;;-0.10;99.90;-1.10;100422.00;;;;5041339;28;20625;-70
2022/12/13 17:54:09;;;;;;;3.50;3.30;;;-0.20;99.90;-1.00;100375.00;;;;5025838;28;20329;-70
2022/12/13 17:56:35;;;;;;;1.57;1.30;;;-0.20;99.90;-1.10;100367.00;;;;5025445;28;20642;-70
2022/12/13 17:59:01;;;;;;;9.40;5.63;;;-0.20;99.90;-1.50;100398.00;;;;5023692;28;20315;-70
2022/12/13 18:01:27;;;;;;;1.17;1.07;;;-0.40;99.90;-1.10;100358.00;;;;5023970;28;20719;-70
2022/12/13 18:03:55;;;;;;;4.20;3.70;;;-0.30;99.90;-1.30;100391.00;;;;5024258;28;20646;-70
2022/12/13 18:06:25;;;;;;;5.07;4.70;;;-0.30;99.90;-1.10;100401.00;;;;5037795;28;20271;-71
2022/12/13 18:08:56;;;;;;;8.13;3.87;;;-0.30;99.90;-0.70;100353.00;;;;5030242;28;20187;-70
2022/12/13 18:11:40;;;;;;;5.40;3.23;;;-0.20;99.90;-1.00;100393.00;;;;5004796;28;20245;-70
2022/12/13 18:14:07;;;;;;;2.17;1.23;;;-0.20;99.90;-0.80;100395.00;;;;5030087;28;20194;-70
2022/12/13 18:16:39;;;;;;;3.13;2.83;;;-0.10;99.90;-0.50;100391.00;;;;5015242;28;20186;-71
2022/12/13 18:19:09;;;;;;;4.03;3.77;;;0.00;99.90;-0.70;100386.00;;;;5028889;28;20188;-71
2022/12/13 18:21:35;;;;;;;2.57;2.10;;;0.00;99.90;-0.80;100342.00;;;;5046537;28;20186;-71
2022/12/13 18:24:01;;;;;;;5.33;4.60;;;0.00;99.90;-0.90;100367.00;;;;5031693;28;20245;-71
2022/12/13 18:26:27;;;;;;;4.20;2.97;;;-0.10;99.90;-1.10;100388.00;;;;5031712;28;20229;-70
2022/12/13 18:28:53;;;;;;;1.77;1.63;;;-0.20;99.90;-0.90;100376.00;;;;5014439;28;20179;-70
2022/12/13 18:31:23;;;;;;;5.30;4.83;;;-0.20;99.90;-0.80;100366.00;;;;5013896;28;20535;-71
2022/12/13 18:34:07;;;;;;;4.23;3.13;;;-0.10;99.90;-0.90;100375.00;;;;5038689;28;20197;-70
2022/12/13 18:36:34;;;;;;;3.27;2.67;;;-0.20;99.90;-1.40;100369.00;;;;5031403;28;20601;-70
2022/12/13 18:39:00;;;;;;;9.50;4.57;;;-0.30;99.90;-0.80;100374.00;;;;5032112;28;20179;-70
2022/12/13 18:41:31;;;;;;;2.20;2.00;;;-0.30;99.90;-1.10;100375.00;;;;5014581;28;20187;-70
2022/12/13 18:44:00;;;;;;;2.10;2.00;;;-0.20;99.90;-1.10;100360.00;;;;5031697;28;20202;-71
2022/12/13 18:47:09;;;;;;;9.77;8.23;;;-0.30;99.90;-1.10;100360.00;;;;5003667;28;20186;-70
2022/12/13 18:50:10;;;;;;;3.90;3.47;;;-0.30;99.90;-1.00;100352.00;;;;5019490;28;20202;-70
2022/12/13 18:53:16;;;;;;;7.23;4.67;;;-0.20;99.90;-0.70;100361.00;;;;5034903;28;20210;-70
2022/12/13 18:55:45;;;;;;;5.13;3.87;;;-0.10;99.90;-1.00;100319.00;;;;5021424;28;20193;-70
2022/12/13 18:58:11;;;;;;;4.40;3.07;;;-0.20;99.90;-1.00;100304.00;;;;5020462;28;20587;-71
2022/12/13 19:00:44;;;;;;;3.13;2.77;;;-0.20;99.90;-0.80;100347.00;;;;5034880;28;20239;-70
2022/12/13 19:03:10;;;;;;;0.67;0.67;;;-0.20;99.90;-0.50;100341.00;;;;5035524;28;20179;-70
2022/12/13 19:06:04;;;;;;;4.23;2.47;;;-0.10;99.90;-0.60;100353.00;;;;5044249;28;20261;-70
2022/12/13 19:08:44;;;;;;;2.83;1.17;;;0.10;99.90;-0.50;100330.00;;;;5044055;28;20178;-70
2022/12/13 19:11:12;;;;;;;0.67;0.67;;;0.20;99.90;-0.80;100300.00;;;;5043678;28;20189;-71
2022/12/13 19:13:41;;;;;;;3.07;2.77;;;0.00;99.90;-0.30;100330.00;;;;5041795;28;20219;-71
2022/12/13 19:16:19;;;;;;;1.67;1.57;;;0.20;99.90;-0.70;100337.00;;;;5028127;28;20340;-71
2022/12/13 19:18:52;;;;;;;1.73;1.70;;;0.20;99.90;-0.30;100332.00;;;;5044666;28;20202;-70
2022/12/13 19:21:22;;;;;;;2.47;2.27;;;0.30;99.90;-0.30;100323.00;;;;5043782;28;20194;-70
2022/12/13 19:23:55;;;;;;;2.70;2.53;;;0.30;99.90;-0.40;100323.00;;;;5027058;28;20237;-71
2022/12/13 19:26:32;;;;;;;8.30;4.40;;;0.30;99.90;-0.90;100318.00;;;;5025272;28;20572;-70